Time;durP1;ratioP1;P1;durP2;ratioP2;P2;SDS_P1;SDS_P2;PMS_P1;PMS_P2;Temp;Humidity;BMP_temperature;BMP_pressure;BME280_temperature;BME280_humidity;BME280_pressure;Samples;Min_cycle;Max_cycle;Signal;HPM_P1;HPM_P2
2022/04/02 00:02:13;;;;;;;1.15;0.90;;;;;;;;;;5046356;28;20595;-16
2022/04/02 00:04:42;;;;;;;2.13;0.90;;;;;;;;;;5051558;28;20234;-16
2022/04/02 00:07:09;;;;;;;2.47;1.17;;;;;;;;;;5051495;28;20248;-16
2022/04/02 00:09:36;;;;;;;1.60;1.08;;;;;;;;;;5051542;28;20244;-16
2022/04/02 00:12:04;;;;;;;1.75;0.80;;;;;;;;;;5042893;28;20226;-16
2022/04/02 00:14:31;;;;;;;4.10;0.80;;;;;;;;;;5046779;28;20229;-16
2022/04/02 00:16:59;;;;;;;3.05;0.90;;;;;;;;;;5046163;28;20240;-16
2022/04/02 00:19:26;;;;;;;3.35;0.90;;;;;;;;;;5051259;28;20367;-16
2022/04/02 00:21:55;;;;;;;1.48;0.70;;;;;;;;;;5050808;28;20242;-16
2022/04/02 00:24:22;;;;;;;3.72;0.80;;;;;;;;;;5046052;28;20621;-16
2022/04/02 00:26:50;;;;;;;1.20;0.73;;;;;;;;;;5051019;28;20226;-16
2022/04/02 00:29:17;;;;;;;1.40;0.82;;;;;;;;;;5051433;28;20233;-16
2022/04/02 00:31:44;;;;;;;1.27;0.50;;;;;;;;;;5051027;28;20225;-16
2022/04/02 00:34:12;;;;;;;1.90;0.45;;;;;;;;;;5050342;28;20230;-16
2022/04/02 00:36:39;;;;;;;1.50;0.70;;;;;;;;;;5044333;28;20238;-16
2022/04/02 00:39:08;;;;;;;1.60;0.65;;;;;;;;;;5051443;28;20240;-16
2022/04/02 00:41:35;;;;;;;3.03;0.75;;;;;;;;;;5050738;28;20234;-16
2022/04/02 00:44:07;;;;;;;2.47;0.50;;;;;;;;;;5042915;28;21023;-16
2022/04/02 00:46:35;;;;;;;1.33;0.80;;;;;;;;;;5035684;28;20226;-16
2022/04/02 00:49:04;;;;;;;1.13;0.60;;;;;;;;;;5050901;28;20234;-16
2022/04/02 00:51:32;;;;;;;2.83;0.80;;;;;;;;;;5050909;28;20238;-16
2022/04/02 00:53:59;;;;;;;2.53;0.68;;;;;;;;;;5050758;28;20222;-17
2022/04/02 00:56:28;;;;;;;1.25;0.70;;;;;;;;;;5047473;28;20230;-16
2022/04/02 00:58:55;;;;;;;1.90;0.60;;;;;;;;;;5049816;28;20234;-16
2022/04/02 01:01:22;;;;;;;1.13;0.43;;;;;;;;;;5050220;28;20238;-16
2022/04/02 01:03:50;;;;;;;0.88;0.60;;;;;;;;;;5050945;28;20317;-16
2022/04/02 01:06:18;;;;;;;0.95;0.65;;;;;;;;;;5050399;28;20233;-16
2022/04/02 01:08:46;;;;;;;1.17;0.65;;;;;;;;;;5045611;28;20230;-16
2022/04/02 01:11:13;;;;;;;4.28;0.63;;;;;;;;;;5050597;28;20237;-16
2022/04/02 01:13:42;;;;;;;0.77;0.60;;;;;;;;;;5050960;28;20234;-16
2022/04/02 01:16:09;;;;;;;1.27;0.70;;;;;;;;;;5046446;28;20242;-16
2022/04/02 01:18:37;;;;;;;2.90;0.60;;;;;;;;;;5050417;28;20230;-16
2022/04/02 01:21:04;;;;;;;2.35;0.73;;;;;;;;;;5035599;28;20234;-16
2022/04/02 01:23:33;;;;;;;0.90;0.70;;;;;;;;;;5044399;28;21046;-16
2022/04/02 01:26:00;;;;;;;1.50;0.88;;;;;;;;;;5039795;28;20222;-16
2022/04/02 01:28:33;;;;;;;1.30;0.80;;;;;;;;;;5039957;28;20234;-16
2022/04/02 01:31:02;;;;;;;0.82;0.60;;;;;;;;;;5045552;28;20666;-16
2022/04/02 01:33:29;;;;;;;1.30;0.60;;;;;;;;;;5047915;28;20232;-16
2022/04/02 01:35:58;;;;;;;1.15;0.60;;;;;;;;;;5049533;28;20230;-16
2022/04/02 01:38:27;;;;;;;1.38;0.60;;;;;;;;;;5050465;28;20334;-16
2022/04/02 01:40:56;;;;;;;1.27;0.88;;;;;;;;;;5045387;28;20234;-16
2022/04/02 01:43:23;;;;;;;1.95;0.80;;;;;;;;;;5050787;28;20234;-16
2022/04/02 01:45:54;;;;;;;1.17;0.63;;;;;;;;;;5049217;28;20768;-16
2022/04/02 01:48:22;;;;;;;1.50;0.77;;;;;;;;;;5050264;28;20706;-16
2022/04/02 01:50:49;;;;;;;3.83;0.52;;;;;;;;;;5049670;28;20234;-16
2022/04/02 01:53:16;;;;;;;1.58;0.80;;;;;;;;;;5045207;28;20226;-16
2022/04/02 01:55:44;;;;;;;0.88;0.60;;;;;;;;;;5041173;28;20234;-16
2022/04/02 01:58:12;;;;;;;0.68;0.50;;;;;;;;;;5051128;28;20240;-16
2022/04/02 02:00:40;;;;;;;2.58;0.57;;;;;;;;;;5052993;28;20244;-16
2022/04/02 02:03:07;;;;;;;1.30;0.68;;;;;;;;;;5048715;28;21062;-16
2022/04/02 02:05:35;;;;;;;1.75;0.73;;;;;;;;;;5046364;28;20242;-16
2022/04/02 02:08:02;;;;;;;1.55;0.65;;;;;;;;;;5053350;28;21078;-16
2022/04/02 02:10:30;;;;;;;0.90;0.60;;;;;;;;;;5053054;28;21025;-16
2022/04/02 02:12:57;;;;;;;0.60;0.50;;;;;;;;;;5052926;28;20230;-16
2022/04/02 02:15:27;;;;;;;1.23;0.60;;;;;;;;;;5044610;28;20237;-16
2022/04/02 02:17:54;;;;;;;0.93;0.60;;;;;;;;;;5053049;28;20704;-16
2022/04/02 02:20:21;;;;;;;4.05;0.82;;;;;;;;;;5069672;22;20240;-17
2022/04/02 02:22:49;;;;;;;0.95;0.77;;;;;;;;;;5056681;28;20230;-17
2022/04/02 02:25:17;;;;;;;2.70;0.63;;;;;;;;;;5065113;28;20241;-17
2022/04/02 02:27:45;;;;;;;0.70;0.50;;;;;;;;;;5069850;28;20229;-17
2022/04/02 02:30:13;;;;;;;1.05;0.57;;;;;;;;;;5070794;28;20233;-16
2022/04/02 02:32:41;;;;;;;1.38;0.60;;;;;;;;;;5074232;28;20233;-16
2022/04/02 02:38:01;;;;;;;1.33;0.60;;;;;;;;;;5070312;28;20217;-16
2022/04/02 02:40:29;;;;;;;0.70;0.50;;;;;;;;;;5071915;28;20236;-16
2022/04/02 02:42:56;;;;;;;2.03;0.63;;;;;;;;;;5073072;28;20239;-16
2022/04/02 02:45:24;;;;;;;3.38;0.88;;;;;;;;;;5069773;28;20240;-16
2022/04/02 02:47:53;;;;;;;1.13;0.65;;;;;;;;;;5067335;28;20692;-16
2022/04/02 02:50:20;;;;;;;1.38;0.65;;;;;;;;;;5071542;28;20236;-16
2022/04/02 02:52:48;;;;;;;3.30;0.65;;;;;;;;;;5073124;28;20226;-16
2022/04/02 02:55:15;;;;;;;0.70;0.63;;;;;;;;;;5071130;28;20230;-17
2022/04/02 02:57:43;;;;;;;1.38;0.63;;;;;;;;;;5067875;28;20240;-16
2022/04/02 03:00:10;;;;;;;0.95;0.80;;;;;;;;;;5072313;28;20236;-17
2022/04/02 03:02:38;;;;;;;1.55;0.70;;;;;;;;;;5072893;28;20786;-16
2022/04/02 03:05:09;;;;;;;1.00;0.70;;;;;;;;;;5064580;28;20387;-17
2022/04/02 03:07:37;;;;;;;1.40;0.80;;;;;;;;;;5069036;28;20229;-16
2022/04/02 03:10:05;;;;;;;0.80;0.50;;;;;;;;;;5062983;28;20241;-16
2022/04/02 03:12:33;;;;;;;1.00;0.60;;;;;;;;;;5072894;28;20241;-17
2022/04/02 03:15:01;;;;;;;1.98;0.95;;;;;;;;;;5071432;28;20240;-16
2022/04/02 03:17:29;;;;;;;0.70;0.50;;;;;;;;;;5068737;28;20255;-16
2022/04/02 03:19:56;;;;;;;0.60;0.50;;;;;;;;;;5067133;28;20237;-16
2022/04/02 03:22:26;;;;;;;0.60;0.50;;;;;;;;;;5080584;28;20249;-16
2022/04/02 03:24:54;;;;;;;1.33;0.68;;;;;;;;;;5085085;28;20224;-16
2022/04/02 03:27:21;;;;;;;2.40;0.68;;;;;;;;;;5082636;28;20950;-16
2022/04/02 03:29:49;;;;;;;0.85;0.50;;;;;;;;;;5082001;28;20598;-16
2022/04/02 03:32:16;;;;;;;2.10;0.55;;;;;;;;;;5079878;28;20646;-16
2022/04/02 03:34:43;;;;;;;1.15;0.60;;;;;;;;;;5081599;28;20229;-16
2022/04/02 03:37:11;;;;;;;0.80;0.50;;;;;;;;;;5083901;28;20264;-16
2022/04/02 03:39:40;;;;;;;0.95;0.75;;;;;;;;;;5080802;28;20232;-16
2022/04/02 03:42:09;;;;;;;0.90;0.80;;;;;;;;;;5078504;28;20241;-16
2022/04/02 03:44:36;;;;;;;2.13;0.52;;;;;;;;;;5076248;28;20240;-16
2022/04/02 03:47:09;;;;;;;0.70;0.60;;;;;;;;;;5076109;28;20232;-16
2022/04/02 03:49:37;;;;;;;0.88;0.50;;;;;;;;;;5076629;28;20289;-17
2022/04/02 03:52:05;;;;;;;1.40;0.70;;;;;;;;;;5080512;28;20230;-16
2022/04/02 03:54:32;;;;;;;0.70;0.47;;;;;;;;;;5079742;28;20238;-16
2022/04/02 03:57:01;;;;;;;0.93;0.50;;;;;;;;;;5083845;28;20239;-16
2022/04/02 03:59:28;;;;;;;1.00;0.52;;;;;;;;;;5080618;28;20226;-16
2022/04/02 04:01:55;;;;;;;1.08;0.63;;;;;;;;;;5083550;28;20236;-16
2022/04/02 04:04:24;;;;;;;1.35;0.70;;;;;;;;;;5079407;28;20228;-16
2022/04/02 04:06:51;;;;;;;2.47;0.65;;;;;;;;;;5081927;28;20221;-16
2022/04/02 04:09:19;;;;;;;1.40;0.70;;;;;;;;;;5081992;28;20244;-16
2022/04/02 04:11:46;;;;;;;1.10;0.50;;;;;;;;;;5080957;28;20666;-16
2022/04/02 04:14:15;;;;;;;0.73;0.57;;;;;;;;;;5081615;28;20232;-16
2022/04/02 04:16:42;;;;;;;1.10;0.63;;;;;;;;;;5076062;28;20727;-16
2022/04/02 04:19:09;;;;;;;1.17;0.85;;;;;;;;;;5079671;28;20267;-16
2022/04/02 04:21:36;;;;;;;1.50;0.57;;;;;;;;;;5074571;28;20252;-16
2022/04/02 04:24:04;;;;;;;1.40;0.70;;;;;;;;;;5067507;28;20229;-16
2022/04/02 04:26:31;;;;;;;1.05;0.70;;;;;;;;;;5071013;28;20241;-16
2022/04/02 04:28:59;;;;;;;0.85;0.55;;;;;;;;;;5071560;28;20238;-17
2022/04/02 04:31:28;;;;;;;1.05;0.50;;;;;;;;;;5071581;28;20234;-16
2022/04/02 04:33:55;;;;;;;3.67;0.80;;;;;;;;;;5071393;28;20724;-16
2022/04/02 04:36:23;;;;;;;1.33;0.55;;;;;;;;;;5070843;28;20349;-16
2022/04/02 04:38:51;;;;;;;0.88;0.63;;;;;;;;;;5071436;28;20704;-16
2022/04/02 04:41:18;;;;;;;1.50;0.70;;;;;;;;;;5071426;28;20240;-17
2022/04/02 04:43:48;;;;;;;1.77;0.70;;;;;;;;;;5070571;28;20225;-16
2022/04/02 04:46:15;;;;;;;0.85;0.50;;;;;;;;;;5067151;28;20249;-16
2022/04/02 04:48:44;;;;;;;1.33;0.70;;;;;;;;;;5070680;28;20248;-16
2022/04/02 04:51:11;;;;;;;1.50;0.50;;;;;;;;;;5071088;28;20771;-16
2022/04/02 04:53:38;;;;;;;1.48;1.00;;;;;;;;;;5071145;28;20237;-17
2022/04/02 04:56:06;;;;;;;0.73;0.52;;;;;;;;;;5071360;28;20229;-17
2022/04/02 04:58:33;;;;;;;0.60;0.50;;;;;;;;;;5070746;28;20307;-16
2022/04/02 05:01:00;;;;;;;1.30;0.65;;;;;;;;;;5071279;28;20232;-16
2022/04/02 05:03:28;;;;;;;1.17;0.63;;;;;;;;;;5070928;28;20245;-16
2022/04/02 05:05:57;;;;;;;1.50;0.68;;;;;;;;;;5071034;28;20221;-16
2022/04/02 05:08:25;;;;;;;1.30;0.68;;;;;;;;;;5070443;28;20620;-16
2022/04/02 05:10:52;;;;;;;1.55;0.63;;;;;;;;;;5070384;28;20338;-16
2022/04/02 05:13:20;;;;;;;1.00;0.52;;;;;;;;;;5070825;28;20236;-16
2022/04/02 05:15:47;;;;;;;0.88;0.68;;;;;;;;;;5068809;28;20237;-17
2022/04/02 05:18:15;;;;;;;0.80;0.68;;;;;;;;;;5071361;28;20739;-16
2022/04/02 05:20:43;;;;;;;1.10;0.70;;;;;;;;;;5069309;28;20241;-16
2022/04/02 05:23:11;;;;;;;0.73;0.50;;;;;;;;;;5071256;28;20244;-17
2022/04/02 05:25:39;;;;;;;0.70;0.50;;;;;;;;;;5070560;28;20237;-17
2022/04/02 05:28:07;;;;;;;0.80;0.52;;;;;;;;;;5071013;28;20244;-16
2022/04/02 05:30:34;;;;;;;1.17;0.65;;;;;;;;;;5070670;28;20276;-17
2022/04/02 05:33:01;;;;;;;1.05;0.57;;;;;;;;;;5070579;28;20225;-17
2022/04/02 05:35:47;;;;;;;0.88;0.50;;;;;;;;;;5072068;28;20233;-17
2022/04/02 05:38:16;;;;;;;1.38;0.50;;;;;;;;;;5074375;28;20234;-16
2022/04/02 05:40:43;;;;;;;1.42;0.60;;;;;;;;;;5074174;28;20783;-16
2022/04/02 05:43:11;;;;;;;1.05;0.50;;;;;;;;;;5073555;28;20248;-17
2022/04/02 05:45:39;;;;;;;1.38;0.63;;;;;;;;;;5071819;28;20237;-16
2022/04/02 05:48:06;;;;;;;1.55;0.80;;;;;;;;;;5073996;28;20234;-16
2022/04/02 05:50:34;;;;;;;1.15;0.60;;;;;;;;;;5069943;28;20235;-16
2022/04/02 05:53:04;;;;;;;1.10;0.60;;;;;;;;;;5074258;28;20213;-17
2022/04/02 05:55:33;;;;;;;0.68;0.50;;;;;;;;;;5074101;28;20592;-17
2022/04/02 05:58:00;;;;;;;0.88;0.68;;;;;;;;;;5073384;28;20225;-17
2022/04/02 06:00:27;;;;;;;1.88;0.68;;;;;;;;;;5073398;28;20984;-17
2022/04/02 06:03:01;;;;;;;1.15;0.68;;;;;;;;;;5073762;28;20237;-16
2022/04/02 06:05:29;;;;;;;1.33;0.60;;;;;;;;;;5073537;28;20570;-17
2022/04/02 06:07:56;;;;;;;2.47;0.60;;;;;;;;;;5073747;28;20237;-17
2022/04/02 06:10:23;;;;;;;2.58;0.57;;;;;;;;;;5073313;28;20256;-16
2022/04/02 06:12:52;;;;;;;5.70;0.77;;;;;;;;;;5073794;28;20226;-17
2022/04/02 06:15:21;;;;;;;2.17;0.80;;;;;;;;;;5072592;28;20264;-17
2022/04/02 06:17:48;;;;;;;0.70;0.50;;;;;;;;;;5068101;28;20232;-16
2022/04/02 06:20:16;;;;;;;0.80;0.60;;;;;;;;;;5065219;28;20976;-17
2022/04/02 06:22:43;;;;;;;1.10;0.57;;;;;;;;;;5070874;28;20277;-16
2022/04/02 06:25:10;;;;;;;1.38;0.50;;;;;;;;;;5067120;28;20234;-16
2022/04/02 06:27:41;;;;;;;2.08;0.75;;;;;;;;;;5072917;28;20225;-17
2022/04/02 06:30:11;;;;;;;0.90;0.60;;;;;;;;;;5076072;28;20320;-17
2022/04/02 06:32:39;;;;;;;4.47;0.85;;;;;;;;;;5072296;28;20232;-16
2022/04/02 06:35:06;;;;;;;3.10;0.75;;;;;;;;;;5074414;28;20234;-16
2022/04/02 06:37:35;;;;;;;0.90;0.55;;;;;;;;;;5070292;28;20273;-17
2022/04/02 06:40:02;;;;;;;1.02;0.60;;;;;;;;;;5075365;28;20227;-17
2022/04/02 06:42:29;;;;;;;1.17;0.50;;;;;;;;;;5073718;28;20239;-17
2022/04/02 06:44:57;;;;;;;0.80;0.50;;;;;;;;;;5073986;28;20229;-17
2022/04/02 06:47:28;;;;;;;3.45;0.75;;;;;;;;;;5078867;28;20237;-17
2022/04/02 06:49:55;;;;;;;1.73;0.77;;;;;;;;;;5076419;28;20240;-17
2022/04/02 06:52:23;;;;;;;2.53;0.70;;;;;;;;;;5079735;28;20779;-17
2022/04/02 06:54:50;;;;;;;0.60;0.60;;;;;;;;;;5078179;28;20234;-17
2022/04/02 06:57:18;;;;;;;1.60;0.60;;;;;;;;;;5080042;28;20234;-17
2022/04/02 06:59:45;;;;;;;2.33;0.60;;;;;;;;;;5080365;28;20229;-17
2022/04/02 07:02:12;;;;;;;1.15;0.50;;;;;;;;;;5077597;28;20240;-17
2022/04/02 07:04:41;;;;;;;0.95;0.50;;;;;;;;;;5080836;28;20240;-16
2022/04/02 07:07:08;;;;;;;1.17;0.65;;;;;;;;;;5079234;28;20221;-16
2022/04/02 07:09:36;;;;;;;1.30;0.70;;;;;;;;;;5080939;28;20236;-16
2022/04/02 07:12:03;;;;;;;3.45;0.70;;;;;;;;;;5074892;28;20950;-16
2022/04/02 07:14:31;;;;;;;6.40;0.70;;;;;;;;;;5080266;28;20284;-16
2022/04/02 07:16:58;;;;;;;6.40;0.90;;;;;;;;;;5074677;28;20713;-16
2022/04/02 07:19:25;;;;;;;4.20;0.60;;;;;;;;;;5076320;28;20241;-16
2022/04/02 07:21:54;;;;;;;3.88;0.88;;;;;;;;;;5074109;28;21134;-16
2022/04/02 07:24:22;;;;;;;2.13;0.70;;;;;;;;;;5071496;28;20286;-16
2022/04/02 07:26:49;;;;;;;3.13;1.38;;;;;;;;;;5071791;28;20234;-16
2022/04/02 07:29:17;;;;;;;3.17;0.68;;;;;;;;;;5075202;28;20240;-16
2022/04/02 07:31:45;;;;;;;8.35;0.80;;;;;;;;;;5078645;28;20233;-16
2022/04/02 07:34:19;;;;;;;2.15;0.70;;;;;;;;;;5077198;28;20336;-16
2022/04/02 07:36:50;;;;;;;1.58;0.70;;;;;;;;;;5074944;28;20767;-16
2022/04/02 07:39:22;;;;;;;3.30;0.85;;;;;;;;;;5076114;28;20238;-16
2022/04/02 07:41:51;;;;;;;3.40;0.80;;;;;;;;;;5080095;28;20229;-16
2022/04/02 07:44:20;;;;;;;1.55;0.98;;;;;;;;;;5072813;28;20241;-16
2022/04/02 07:46:48;;;;;;;3.35;0.90;;;;;;;;;;5071205;28;20222;-16
2022/04/02 07:49:18;;;;;;;1.67;0.73;;;;;;;;;;5074613;28;20240;-16
2022/04/02 07:51:46;;;;;;;2.70;0.60;;;;;;;;;;5073550;28;20349;-16
2022/04/02 07:54:13;;;;;;;7.50;1.20;;;;;;;;;;5082637;28;20911;-16
2022/04/02 07:56:43;;;;;;;12.07;1.20;;;;;;;;;;5078665;28;20436;-16
2022/04/02 07:59:11;;;;;;;12.38;1.63;;;;;;;;;;5082484;28;20411;-16
2022/04/02 08:01:38;;;;;;;2.83;1.35;;;;;;;;;;5078105;28;20236;-16
2022/04/02 08:04:06;;;;;;;6.70;0.93;;;;;;;;;;5079439;28;20245;-16
2022/04/02 08:06:34;;;;;;;2.10;1.02;;;;;;;;;;5082320;28;20232;-16
2022/04/02 08:09:01;;;;;;;7.18;1.10;;;;;;;;;;5074914;28;20719;-16
2022/04/02 08:11:29;;;;;;;7.93;1.38;;;;;;;;;;5078511;28;20228;-16
2022/04/02 08:13:57;;;;;;;6.35;1.00;;;;;;;;;;5077580;28;20240;-16
2022/04/02 08:16:24;;;;;;;4.22;0.90;;;;;;;;;;5086998;28;20256;-16
2022/04/02 08:18:52;;;;;;;6.22;0.95;;;;;;;;;;5080623;28;20229;-16
2022/04/02 08:21:19;;;;;;;4.78;0.75;;;;;;;;;;5079197;28;20241;-16
2022/04/02 08:23:47;;;;;;;5.10;0.80;;;;;;;;;;5073542;28;20241;-16
2022/04/02 08:26:23;;;;;;;5.72;0.82;;;;;;;;;;5076087;28;20800;-16
2022/04/02 08:28:55;;;;;;;4.25;1.10;;;;;;;;;;5070061;28;20417;-16
2022/04/02 08:31:27;;;;;;;4.78;0.90;;;;;;;;;;5073108;28;20424;-16
2022/04/02 08:33:57;;;;;;;3.05;0.90;;;;;;;;;;5081076;28;20213;-16
2022/04/02 08:36:26;;;;;;;5.97;1.60;;;;;;;;;;5083802;28;20232;-16
2022/04/02 08:38:54;;;;;;;6.05;0.98;;;;;;;;;;5074952;28;20420;-16
2022/04/02 08:41:45;;;;;;;1.73;0.88;;;;;;;;;;5070875;28;20703;-16
2022/04/02 08:44:18;;;;;;;5.15;1.10;;;;;;;;;;5072253;28;20427;-16
2022/04/02 08:46:53;;;;;;;3.95;1.00;;;;;;;;;;5075353;28;20229;-16
2022/04/02 08:49:22;;;;;;;4.10;0.90;;;;;;;;;;5080194;28;20228;-16
2022/04/02 08:51:56;;;;;;;4.63;0.95;;;;;;;;;;5079889;28;20856;-16
2022/04/02 08:54:24;;;;;;;2.58;1.02;;;;;;;;;;5078941;28;20243;-16
2022/04/02 08:56:55;;;;;;;3.33;0.90;;;;;;;;;;5080984;28;20640;-16
2022/04/02 08:59:25;;;;;;;9.52;0.93;;;;;;;;;;5069727;28;20240;-16
2022/04/02 09:01:56;;;;;;;5.20;1.35;;;;;;;;;;5068061;28;20431;-17
2022/04/02 09:04:37;;;;;;;14.43;1.27;;;;;;;;;;5066612;28;20241;-17
2022/04/02 09:07:25;;;;;;;5.18;0.90;;;;;;;;;;5073576;28;20247;-16
2022/04/02 09:10:01;;;;;;;5.05;1.27;;;;;;;;;;5081235;28;20232;-15
2022/04/02 09:12:33;;;;;;;6.22;1.10;;;;;;;;;;5077033;28;20240;-17
2022/04/02 09:15:08;;;;;;;2.00;1.02;;;;;;;;;;5075351;28;20226;-16
2022/04/02 09:17:37;;;;;;;6.18;1.10;;;;;;;;;;5069528;28;20417;-17
2022/04/02 09:20:22;;;;;;;5.30;1.10;;;;;;;;;;5074907;28;20228;-16
2022/04/02 09:23:06;;;;;;;3.88;0.80;;;;;;;;;;5073965;28;20244;-17
2022/04/02 09:25:49;;;;;;;3.17;0.80;;;;;;;;;;5074314;28;20232;-16
2022/04/02 09:28:34;;;;;;;3.17;0.80;;;;;;;;;;5071631;28;20236;-17
2022/04/02 09:31:12;;;;;;;5.28;0.90;;;;;;;;;;5073141;28;20233;-16
2022/04/02 09:33:47;;;;;;;3.97;1.25;;;;;;;;;;5068588;28;20491;-16
2022/04/02 09:36:19;;;;;;;6.07;1.30;;;;;;;;;;5074259;28;20413;-16
2022/04/02 09:39:05;;;;;;;1.67;1.00;;;;;;;;;;5073738;28;20240;-16
2022/04/02 09:41:35;;;;;;;4.15;1.00;;;;;;;;;;5074034;28;20439;-16
2022/04/02 09:44:08;;;;;;;2.03;0.90;;;;;;;;;;5065914;28;20233;-17
2022/04/02 09:46:56;;;;;;;4.43;1.27;;;;;;;;;;5071585;28;20723;-17
2022/04/02 09:49:28;;;;;;;1.80;0.90;;;;;;;;;;5074232;28;20237;-17
2022/04/02 09:51:57;;;;;;;4.45;1.25;;;;;;;;;;5075802;28;20483;-16
2022/04/02 09:54:29;;;;;;;5.30;1.02;;;;;;;;;;5077436;28;20945;-16
2022/04/02 09:56:57;;;;;;;4.30;1.08;;;;;;;;;;5072805;28;20240;-16
2022/04/02 09:59:26;;;;;;;4.15;0.90;;;;;;;;;;5073272;28;21089;-16
2022/04/02 10:01:55;;;;;;;8.52;1.30;;;;;;;;;;5074560;28;20471;-16
2022/04/02 10:04:29;;;;;;;15.27;1.73;;;;;;;;;;5075666;28;20432;-16
2022/04/02 10:06:57;;;;;;;5.97;1.05;;;;;;;;;;5070096;28;21057;-16
2022/04/02 10:09:28;;;;;;;3.50;0.80;;;;;;;;;;5066193;28;20461;-16
2022/04/02 10:11:55;;;;;;;4.07;0.90;;;;;;;;;;5069819;28;21242;-16
2022/04/02 10:14:23;;;;;;;4.60;1.10;;;;;;;;;;5076357;28;20436;-16
2022/04/02 10:16:51;;;;;;;4.93;0.90;;;;;;;;;;5073137;28;21048;-16
2022/04/02 10:19:19;;;;;;;3.03;0.80;;;;;;;;;;5077560;28;20229;-16
2022/04/02 10:21:49;;;;;;;2.50;0.95;;;;;;;;;;5070439;28;20237;-17
2022/04/02 10:24:22;;;;;;;2.60;0.95;;;;;;;;;;5070285;28;20240;-16
2022/04/02 10:26:53;;;;;;;6.05;1.20;;;;;;;;;;5073324;28;21693;-16
2022/04/02 10:29:24;;;;;;;3.03;0.90;;;;;;;;;;5068845;28;20929;-16
2022/04/02 10:31:55;;;;;;;2.45;1.17;;;;;;;;;;5073562;28;20284;-17
2022/04/02 10:34:38;;;;;;;3.05;0.98;;;;;;;;;;5070323;28;20295;-16
2022/04/02 10:37:09;;;;;;;3.50;0.98;;;;;;;;;;5075228;28;20966;-16
2022/04/02 10:39:37;;;;;;;9.63;0.90;;;;;;;;;;5068629;28;20264;-16
2022/04/02 10:42:04;;;;;;;1.58;0.70;;;;;;;;;;5074976;28;20236;-16
2022/04/02 10:44:43;;;;;;;2.00;0.82;;;;;;;;;;5069650;28;20236;-17
2022/04/02 10:47:10;;;;;;;4.82;1.08;;;;;;;;;;5073735;28;20626;-16
2022/04/02 10:49:37;;;;;;;5.68;1.00;;;;;;;;;;5072808;28;20235;-16
2022/04/02 10:52:05;;;;;;;1.30;0.70;;;;;;;;;;5068424;28;20232;-16
2022/04/02 10:54:33;;;;;;;3.90;0.90;;;;;;;;;;5074333;28;20241;-16
2022/04/02 10:57:01;;;;;;;1.63;1.00;;;;;;;;;;5071146;28;20784;-16
2022/04/02 10:59:31;;;;;;;3.90;1.00;;;;;;;;;;5073695;28;20417;-16
2022/04/02 11:01:59;;;;;;;1.65;0.90;;;;;;;;;;5066415;28;20440;-16
2022/04/02 11:04:30;;;;;;;3.30;0.80;;;;;;;;;;5072510;28;20264;-16
2022/04/02 11:06:57;;;;;;;3.83;0.70;;;;;;;;;;5070774;28;20245;-16
2022/04/02 11:09:28;;;;;;;1.55;1.00;;;;;;;;;;5078381;28;20723;-16
2022/04/02 11:11:58;;;;;;;2.95;0.70;;;;;;;;;;5074806;28;20233;-16
2022/04/02 11:14:25;;;;;;;1.38;0.55;;;;;;;;;;5072446;28;20241;-16
2022/04/02 11:16:53;;;;;;;3.75;0.75;;;;;;;;;;5069958;28;20240;-16
2022/04/02 11:22:09;;;;;;;1.55;0.75;;;;;;;;;;5063317;28;20634;-17
2022/04/02 11:24:40;;;;;;;1.52;0.82;;;;;;;;;;5068526;28;20703;-16
2022/04/02 11:27:08;;;;;;;1.20;0.70;;;;;;;;;;5073580;28;20614;-17
2022/04/02 11:29:35;;;;;;;6.53;1.08;;;;;;;;;;5071126;28;20233;-17
2022/04/02 11:32:03;;;;;;;1.90;1.00;;;;;;;;;;5071261;28;20244;-16
2022/04/02 11:34:30;;;;;;;6.63;0.82;;;;;;;;;;5077818;28;20239;-16
2022/04/02 11:36:59;;;;;;;2.53;0.90;;;;;;;;;;5071922;28;20286;-16
2022/04/02 11:39:29;;;;;;;2.03;0.73;;;;;;;;;;5077459;28;20692;-16
2022/04/02 11:41:57;;;;;;;3.38;0.77;;;;;;;;;;5070028;28;20226;-16
2022/04/02 11:44:33;;;;;;;2.28;0.70;;;;;;;;;;5073613;28;20962;-16
2022/04/02 11:47:01;;;;;;;2.78;0.95;;;;;;;;;;5071191;28;20247;-16
2022/04/02 11:49:28;;;;;;;3.63;0.70;;;;;;;;;;5071529;28;20240;-17
2022/04/02 11:52:03;;;;;;;4.85;0.70;;;;;;;;;;5078082;28;20238;-16
2022/04/02 11:54:30;;;;;;;3.60;0.70;;;;;;;;;;5068273;28;20237;-17
2022/04/02 11:57:07;;;;;;;2.25;0.80;;;;;;;;;;5072810;28;21134;-16
2022/04/02 11:59:36;;;;;;;1.00;0.70;;;;;;;;;;5068664;28;20233;-17
2022/04/02 12:02:03;;;;;;;2.10;0.70;;;;;;;;;;5067435;28;20233;-16
2022/04/02 12:04:32;;;;;;;2.08;0.80;;;;;;;;;;5070884;28;20523;-16
2022/04/02 12:07:04;;;;;;;2.50;0.90;;;;;;;;;;5072482;28;20718;-16
2022/04/02 12:09:31;;;;;;;4.60;1.38;;;;;;;;;;5071906;28;20220;-16
2022/04/02 12:12:00;;;;;;;3.05;0.70;;;;;;;;;;5068831;28;20248;-17
2022/04/02 12:14:28;;;;;;;1.38;0.75;;;;;;;;;;5074611;28;20277;-16
2022/04/02 12:17:00;;;;;;;3.17;0.90;;;;;;;;;;5068803;28;20228;-17
2022/04/02 12:19:41;;;;;;;2.50;0.80;;;;;;;;;;5068656;28;21051;-17
2022/04/02 12:22:19;;;;;;;1.85;0.80;;;;;;;;;;5066460;28;20244;-17
2022/04/02 12:24:48;;;;;;;1.00;0.80;;;;;;;;;;5068453;28;20236;-16
2022/04/02 12:27:19;;;;;;;2.15;1.05;;;;;;;;;;5069142;28;20248;-16
2022/04/02 12:29:46;;;;;;;2.45;0.80;;;;;;;;;;5065912;28;20738;-16
2022/04/02 12:32:15;;;;;;;1.70;0.70;;;;;;;;;;5068357;28;20581;-16
2022/04/02 12:34:43;;;;;;;9.93;1.00;;;;;;;;;;5066246;28;20432;-16
2022/04/02 12:37:10;;;;;;;4.32;0.60;;;;;;;;;;5063152;28;20232;-16
2022/04/02 12:39:39;;;;;;;4.78;1.00;;;;;;;;;;5065205;28;20684;-16
2022/04/02 12:42:06;;;;;;;3.50;1.25;;;;;;;;;;5069511;28;20240;-17
2022/04/02 12:44:33;;;;;;;2.00;0.80;;;;;;;;;;5065159;28;20739;-17
2022/04/02 12:47:10;;;;;;;1.63;0.70;;;;;;;;;;5071994;28;20240;-16
2022/04/02 12:49:38;;;;;;;2.28;0.80;;;;;;;;;;5064509;28;20280;-17
2022/04/02 12:52:10;;;;;;;2.63;0.80;;;;;;;;;;5067514;28;20229;-16
2022/04/02 12:54:37;;;;;;;1.58;0.70;;;;;;;;;;5069071;28;20241;-16
2022/04/02 12:57:15;;;;;;;1.50;0.77;;;;;;;;;;5065888;28;20226;-17
2022/04/02 12:59:43;;;;;;;2.60;0.82;;;;;;;;;;5066625;28;20719;-16
2022/04/02 13:02:10;;;;;;;2.33;0.80;;;;;;;;;;5072560;28;20232;-16
2022/04/02 13:04:41;;;;;;;4.10;0.77;;;;;;;;;;5066662;28;20333;-16
2022/04/02 13:07:11;;;;;;;3.75;0.77;;;;;;;;;;5068055;28;20252;-16
2022/04/02 13:09:39;;;;;;;5.10;0.70;;;;;;;;;;5076099;28;20240;-16
2022/04/02 13:12:09;;;;;;;1.50;0.88;;;;;;;;;;5072802;28;20237;-16
2022/04/02 13:14:39;;;;;;;1.77;0.80;;;;;;;;;;5068133;28;20239;-16
2022/04/02 13:17:07;;;;;;;1.15;0.70;;;;;;;;;;5063493;28;20305;-17
2022/04/02 13:22:24;;;;;;;1.13;0.80;;;;;;;;;;5064901;28;20245;-17
2022/04/02 13:24:53;;;;;;;1.17;0.70;;;;;;;;;;5070896;28;20229;-16
2022/04/02 13:27:39;;;;;;;1.65;0.85;;;;;;;;;;5071416;28;20245;-16
2022/04/02 13:30:07;;;;;;;1.40;0.55;;;;;;;;;;5064319;28;20229;-16
2022/04/02 13:32:37;;;;;;;4.88;1.30;;;;;;;;;;5064104;28;21004;-16
2022/04/02 13:35:05;;;;;;;3.05;0.90;;;;;;;;;;5062771;28;20417;-16
2022/04/02 13:37:38;;;;;;;4.53;1.33;;;;;;;;;;5066678;28;20230;-17
2022/04/02 13:40:06;;;;;;;2.05;0.95;;;;;;;;;;5067863;28;20237;-17
2022/04/02 13:42:35;;;;;;;2.05;0.88;;;;;;;;;;5068237;28;21447;-17
2022/04/02 13:45:03;;;;;;;2.17;1.00;;;;;;;;;;5067947;28;20237;-18
2022/04/02 13:47:31;;;;;;;2.65;0.82;;;;;;;;;;5075866;28;20248;-17
2022/04/02 13:49:58;;;;;;;3.67;0.60;;;;;;;;;;5072218;28;20259;-17
2022/04/02 13:52:26;;;;;;;4.75;0.70;;;;;;;;;;5072274;28;20240;-17
2022/04/02 13:54:58;;;;;;;2.47;0.60;;;;;;;;;;5072487;28;20232;-17
2022/04/02 13:57:27;;;;;;;1.55;1.00;;;;;;;;;;5073983;28;21155;-17
2022/04/02 13:59:58;;;;;;;1.35;0.68;;;;;;;;;;5071375;28;20256;-17
2022/04/02 14:02:26;;;;;;;3.83;0.85;;;;;;;;;;5078704;28;20236;-17
2022/04/02 14:05:00;;;;;;;1.10;0.90;;;;;;;;;;5075144;28;20229;-17
2022/04/02 14:07:27;;;;;;;0.75;0.50;;;;;;;;;;5070824;28;20234;-17
2022/04/02 14:09:54;;;;;;;1.27;0.60;;;;;;;;;;5068538;28;20229;-17
2022/04/02 14:12:27;;;;;;;4.15;0.75;;;;;;;;;;5073596;28;20229;-17
2022/04/02 14:14:59;;;;;;;0.68;0.60;;;;;;;;;;5071365;28;20269;-17
2022/04/02 14:17:28;;;;;;;3.15;0.90;;;;;;;;;;5063962;28;20241;-17
2022/04/02 14:19:58;;;;;;;1.10;0.70;;;;;;;;;;5067867;28;20233;-17
2022/04/02 14:22:26;;;;;;;2.17;0.80;;;;;;;;;;5065328;28;20314;-17
2022/04/02 14:24:55;;;;;;;2.58;0.70;;;;;;;;;;5062863;28;20424;-17
2022/04/02 14:27:46;;;;;;;3.72;0.68;;;;;;;;;;5068208;28;20252;-17
2022/04/02 14:30:18;;;;;;;2.65;0.80;;;;;;;;;;5016955;28;20235;-17
2022/04/02 14:32:57;;;;;;;4.05;0.70;;;;;;;;;;5064952;28;20251;-17
2022/04/02 14:35:40;;;;;;;2.22;0.77;;;;;;;;;;5061337;28;20240;-17
2022/04/02 14:38:38;;;;;;;2.40;0.80;;;;;;;;;;5061785;28;20230;-17
2022/04/02 14:41:06;;;;;;;1.75;0.80;;;;;;;;;;5036579;28;20233;-17
2022/04/02 14:43:44;;;;;;;2.40;0.60;;;;;;;;;;5061229;28;20239;-17
2022/04/02 14:46:29;;;;;;;0.98;0.50;;;;;;;;;;5061376;28;20236;-17
2022/04/02 14:49:02;;;;;;;2.70;0.68;;;;;;;;;;5055470;28;20697;-17
2022/04/02 14:51:44;;;;;;;3.38;0.95;;;;;;;;;;5062723;28;20237;-17
2022/04/02 14:54:22;;;;;;;2.63;0.60;;;;;;;;;;5060285;28;20225;-17
2022/04/02 14:56:56;;;;;;;2.65;0.90;;;;;;;;;;5061526;28;20548;-17
2022/04/02 14:59:31;;;;;;;1.90;0.80;;;;;;;;;;5063654;28;20272;-17
2022/04/02 15:02:17;;;;;;;4.53;1.48;;;;;;;;;;5056131;28;20237;-17
2022/04/02 15:05:02;;;;;;;1.55;0.60;;;;;;;;;;5065797;28;20236;-17
2022/04/02 15:07:53;;;;;;;3.80;0.85;;;;;;;;;;5064355;28;20239;-17